createdAt,value
2023-02-28T00:11:13.937Z,-0.90
2023-02-28T00:13:43.778Z,-0.90
2023-02-28T00:16:14.361Z,-0.90
2023-02-28T01:42:10.605Z,-1.40
2023-02-28T01:45:04.876Z,-1.50
2023-02-28T01:47:40.017Z,-1.50
2023-02-28T01:50:13.287Z,-1.50
2023-02-28T01:55:08.890Z,-1.50
2023-02-28T01:57:40.194Z,-1.50
2023-02-28T02:00:14.315Z,-1.50
2023-02-28T02:02:44.309Z,-1.50
2023-02-28T02:05:15.760Z,-1.50
2023-02-28T02:07:44.581Z,-1.50
2023-02-28T02:10:17.241Z,-1.50
2023-02-28T02:13:05.319Z,-1.50
2023-02-28T02:16:02.136Z,-1.60
2023-02-28T02:18:41.772Z,-1.60
2023-02-28T02:21:36.658Z,-1.60
2023-02-28T02:27:07.582Z,-1.60
2023-02-28T02:30:02.436Z,-1.60
2023-02-28T02:32:38.124Z,-1.70
2023-02-28T02:35:17.658Z,-1.70
2023-02-28T02:37:52.685Z,-1.70
2023-02-28T02:40:23.799Z,-1.70
2023-02-28T02:43:02.524Z,-1.70
2023-02-28T02:45:45.146Z,-1.70
2023-02-28T02:48:17.012Z,-1.70
2023-02-28T02:50:52.542Z,-1.70
2023-02-28T02:53:25.214Z,-1.80
2023-02-28T02:55:55.462Z,-1.70
2023-02-28T02:58:26.603Z,-1.70
2023-02-28T03:00:56.963Z,-1.80
2023-02-28T03:03:30.033Z,-1.80
2023-02-28T03:05:59.267Z,-1.70
2023-02-28T03:10:58.652Z,-1.80
2023-02-28T03:13:31.297Z,-1.80
2023-02-28T03:16:22.306Z,-1.80
2023-02-28T03:19:22.123Z,-1.80
2023-02-28T03:22:02.243Z,-1.80
2023-02-28T03:25:07.754Z,-1.80
2023-02-28T03:27:47.396Z,-1.80
2023-02-28T03:30:24.928Z,-1.80
2023-02-28T03:33:03.495Z,-1.80
2023-02-28T03:35:37.313Z,-1.80
2023-02-28T03:38:14.927Z,-1.90
2023-02-28T03:40:47.698Z,-1.80
2023-02-28T03:43:21.193Z,-1.80
2023-02-28T03:45:51.145Z,-1.90
2023-02-28T03:48:31.357Z,-1.90
2023-02-28T03:51:00.637Z,-1.90
2023-02-28T03:53:33.518Z,-1.90
2023-02-28T03:56:15.254Z,-1.90
2023-02-28T03:59:26.489Z,-1.90
2023-02-28T04:06:54.055Z,-1.90
2023-02-28T04:11:53.103Z,-1.90
2023-02-28T04:19:16.004Z,-2.00
2023-02-28T04:21:45.616Z,-2.00
2023-02-28T04:24:15.775Z,-2.00
2023-02-28T04:26:45.424Z,-2.00
2023-02-28T04:29:14.934Z,-2.00
2023-02-28T04:56:18.365Z,-2.00
2023-02-28T05:01:33.464Z,-2.10
2023-02-28T05:04:02.596Z,-2.10
2023-02-28T05:06:32.740Z,-2.20
2023-02-28T05:11:36.012Z,-2.20
2023-02-28T05:14:08.393Z,-2.20
2023-02-28T05:21:32.890Z,-2.20
2023-02-28T05:24:03.624Z,-2.20
2023-02-28T05:26:31.689Z,-2.20
2023-02-28T05:38:49.724Z,-2.10
2023-02-28T05:41:17.754Z,-2.20
2023-02-28T05:46:13.751Z,-2.10
2023-02-28T05:48:44.227Z,-2.20
2023-02-28T06:01:02.403Z,-2.20
2023-02-28T06:47:43.072Z,-1.90
2023-02-28T06:50:13.293Z,-1.80
2023-02-28T06:55:08.761Z,-1.70
2023-02-28T06:57:36.893Z,-1.70
2023-02-28T07:00:09.570Z,-1.60
2023-02-28T07:02:39.394Z,-1.60
2023-02-28T07:05:07.248Z,-1.40
2023-02-28T08:18:54.485Z,0.30
2023-02-28T08:21:21.959Z,0.40
2023-02-28T08:23:49.944Z,0.50
2023-02-28T08:26:20.247Z,0.50
2023-02-28T08:31:16.646Z,0.70
2023-02-28T08:41:09.875Z,0.90
2023-02-28T08:48:34.653Z,1.10
2023-02-28T08:53:37.178Z,1.30
2023-02-28T08:56:15.230Z,1.30
2023-02-28T09:01:16.162Z,1.50
2023-02-28T09:03:43.765Z,1.50
2023-02-28T09:06:12.564Z,1.50
2023-02-28T09:16:03.718Z,1.80
2023-02-28T09:18:31.346Z,1.80
2023-02-28T09:23:26.216Z,1.80
2023-02-28T09:25:55.515Z,1.90
2023-02-28T09:28:23.312Z,1.90
2023-02-28T09:30:53.333Z,2.00
2023-02-28T09:33:22.102Z,2.00
2023-02-28T09:35:50.007Z,2.10
2023-02-28T09:38:18.128Z,2.20
2023-02-28T09:40:58.357Z,2.20
2023-02-28T09:43:29.745Z,2.20
2023-02-28T09:46:03.525Z,2.20
2023-02-28T09:48:38.036Z,2.30
2023-02-28T09:51:52.028Z,2.30
2023-02-28T09:54:24.791Z,2.50
2023-02-28T09:57:05.285Z,2.50
2023-02-28T10:00:11.376Z,2.50
2023-02-28T10:05:13.482Z,2.60
2023-02-28T10:08:06.132Z,2.70
2023-02-28T10:10:48.043Z,2.80
2023-02-28T10:14:02.266Z,2.80
2023-02-28T10:16:56.261Z,2.80
2023-02-28T10:19:50.381Z,2.90
2023-02-28T10:22:51.457Z,2.90
2023-02-28T10:25:30.494Z,3.00
2023-02-28T10:28:10.208Z,3.10
2023-02-28T10:30:50.019Z,3.10
2023-02-28T10:33:33.703Z,3.10
2023-02-28T10:38:36.001Z,3.20
2023-02-28T10:41:10.151Z,3.20
2023-02-28T10:43:38.811Z,3.20
2023-02-28T10:46:11.844Z,3.20
2023-02-28T10:48:51.178Z,3.20
2023-02-28T10:51:20.212Z,3.30
2023-02-28T10:54:01.895Z,3.20
2023-02-28T10:59:03.655Z,3.40
2023-02-28T11:01:39.744Z,3.30
2023-02-28T11:04:33.566Z,3.40
2023-02-28T11:07:20.754Z,3.50
2023-02-28T11:10:07.141Z,3.50
2023-02-28T11:12:47.016Z,3.50
2023-02-28T11:15:31.162Z,3.50
2023-02-28T11:18:02.530Z,3.60
2023-02-28T11:20:35.261Z,3.70
2023-02-28T11:23:04.166Z,3.70
2023-02-28T11:25:38.713Z,3.80
2023-02-28T11:28:23.995Z,3.80
2023-02-28T11:31:17.224Z,3.90
2023-02-28T11:33:51.359Z,4.00
2023-02-28T11:36:33.028Z,4.00
2023-02-28T11:39:11.681Z,4.00
2023-02-28T11:42:03.237Z,4.10
2023-02-28T11:44:58.702Z,4.10
2023-02-28T11:47:30.212Z,4.20
2023-02-28T11:50:18.620Z,4.40
2023-02-28T11:52:54.656Z,4.40
2023-02-28T11:55:39.734Z,4.40
2023-02-28T12:00:55.228Z,4.40
2023-02-28T12:03:47.611Z,4.50
2023-02-28T12:06:26.645Z,4.50
2023-02-28T12:14:20.033Z,4.40
2023-02-28T12:17:04.229Z,4.50
2023-02-28T12:19:45.777Z,4.60
2023-02-28T12:22:43.290Z,4.70
2023-02-28T12:25:39.913Z,4.60
2023-02-28T12:28:10.947Z,4.60
2023-02-28T12:30:47.097Z,4.60
2023-02-28T12:33:17.221Z,4.70
2023-02-28T12:35:56.895Z,4.80
2023-02-28T12:38:30.561Z,4.70
2023-02-28T12:41:02.848Z,4.70
2023-02-28T12:43:41.428Z,4.70
2023-02-28T12:51:03.828Z,4.70
2023-02-28T12:53:36.565Z,4.70
2023-02-28T12:56:41.982Z,4.70
2023-02-28T12:59:46.845Z,4.80
2023-02-28T13:02:44.398Z,4.80
2023-02-28T13:05:35.373Z,4.90
2023-02-28T13:08:38.374Z,4.90
2023-02-28T13:18:47.857Z,5.10
2023-02-28T13:21:29.456Z,5.30
2023-02-28T13:32:07.105Z,5.30
2023-02-28T13:34:35.798Z,5.40
2023-02-28T13:37:24.438Z,5.30
2023-02-28T13:39:52.346Z,5.20
2023-02-28T13:42:38.473Z,5.20
2023-02-28T13:47:56.411Z,5.30
2023-02-28T13:50:39.488Z,5.30
2023-02-28T13:55:58.037Z,5.20
2023-02-28T13:58:49.307Z,5.10
2023-02-28T14:01:22.271Z,5.10
2023-02-28T14:04:26.480Z,5.10
2023-02-28T14:06:55.733Z,5.20
2023-02-28T14:09:33.848Z,5.20
2023-02-28T14:12:37.902Z,5.20
2023-02-28T14:15:25.519Z,5.20
2023-02-28T14:17:57.412Z,5.20
2023-02-28T14:20:31.164Z,5.20
2023-02-28T14:23:19.456Z,5.20
2023-02-28T14:25:58.583Z,5.20
2023-02-28T14:28:48.895Z,5.20
2023-02-28T14:31:38.163Z,5.20
2023-02-28T14:34:33.654Z,5.10
2023-02-28T14:37:03.202Z,5.20
2023-02-28T14:39:32.116Z,5.20
2023-02-28T14:47:07.354Z,5.20
2023-02-28T14:49:43.282Z,5.20
2023-02-28T14:54:58.075Z,5.10
2023-02-28T15:00:27.390Z,5.10
2023-02-28T15:02:55.576Z,5.10
2023-02-28T15:05:25.511Z,5.10
2023-02-28T15:08:21.155Z,5.10
2023-02-28T15:11:03.661Z,5.00
2023-02-28T15:13:57.523Z,5.10
2023-02-28T15:16:32.758Z,5.00
2023-02-28T15:19:03.392Z,5.00
2023-02-28T15:21:40.432Z,5.00
2023-02-28T15:24:24.814Z,4.90
2023-02-28T15:26:57.751Z,4.90
2023-02-28T15:29:27.057Z,4.80
2023-02-28T15:32:01.115Z,4.80
2023-02-28T15:34:44.083Z,4.70
2023-02-28T15:37:34.749Z,4.60
2023-02-28T15:40:13.474Z,4.50
2023-02-28T15:45:29.557Z,4.40
2023-02-28T15:55:29.342Z,4.30
2023-02-28T15:58:02.913Z,4.30
2023-02-28T16:00:31.022Z,4.20
2023-02-28T16:05:33.639Z,4.10
2023-02-28T16:08:16.277Z,4.10
2023-02-28T16:13:16.176Z,4.00
2023-02-28T16:15:44.862Z,4.00
2023-02-28T16:18:13.346Z,4.00
2023-02-28T16:25:39.292Z,3.90
2023-02-28T16:28:16.345Z,3.80
2023-02-28T16:40:36.142Z,3.80
2023-02-28T16:43:08.456Z,3.70
2023-02-28T16:50:33.515Z,3.60
2023-02-28T16:58:00.882Z,3.50
2023-02-28T17:00:29.762Z,3.50
2023-02-28T17:02:57.806Z,3.50
2023-02-28T17:10:25.560Z,3.50
2023-02-28T17:20:24.736Z,3.30
2023-02-28T17:30:28.152Z,3.20
2023-02-28T17:32:58.224Z,3.10
2023-02-28T17:40:24.299Z,3.10
2023-02-28T17:47:49.664Z,3.10
2023-02-28T17:50:20.859Z,3.00
2023-02-28T18:00:14.534Z,2.90
2023-02-28T18:05:09.584Z,2.90
2023-02-28T18:07:39.103Z,2.90
2023-02-28T18:10:08.052Z,2.90
2023-02-28T19:18:55.722Z,2.40
2023-02-28T19:21:24.811Z,2.40
2023-02-28T19:26:21.856Z,2.40
2023-02-28T19:31:19.372Z,2.40
2023-02-28T19:36:14.567Z,2.30
2023-02-28T19:38:42.048Z,2.30
2023-02-28T19:41:11.135Z,2.40
2023-02-28T19:46:06.654Z,2.30
2023-02-28T19:51:09.449Z,2.20
2023-02-28T19:53:37.509Z,2.20
2023-02-28T19:58:32.837Z,2.10
2023-02-28T20:06:02.011Z,2.10
2023-02-28T20:30:39.593Z,1.90
2023-02-28T21:17:28.875Z,1.70
2023-02-28T21:44:32.610Z,1.50
2023-02-28T22:01:51.407Z,1.50
2023-02-28T22:06:51.112Z,1.50
2023-02-28T22:19:19.936Z,1.30
2023-02-28T22:34:07.769Z,1.30
2023-02-28T22:43:59.891Z,1.20
2023-02-28T22:46:31.176Z,1.10
2023-02-28T22:48:59.778Z,1.10
2023-02-28T22:53:56.181Z,1.10
2023-02-28T22:56:25.947Z,1.10
2023-02-28T22:58:55.699Z,1.10
2023-02-28T23:01:24.623Z,1.10
2023-02-28T23:06:26.784Z,1.10
2023-02-28T23:08:57.277Z,1.00
2023-02-28T23:11:32.406Z,0.90
2023-02-28T23:14:00.169Z,1.00
2023-02-28T23:16:30.396Z,0.90
2023-02-28T23:18:59.428Z,1.00
2023-02-28T23:36:13.490Z,1.00
2023-02-28T23:38:41.408Z,0.90
2023-02-28T23:41:09.877Z,1.00
2023-02-28T23:46:05.084Z,0.90
2023-02-28T23:51:10.527Z,0.90
2023-02-28T23:53:39.053Z,1.00
2023-02-28T23:56:11.323Z,1.00
